Aviation Digital Data Service (ADDS)

Output produced by METARs form (0021 UTC 23 March 2019)
found at http://www.aviationweather.gov/metar/data/
 
METAR text: KMDT 222356Z 30020G30KT 10SM FEW075 SCT150 05/M03 A2966 RMK AO2 PK WND 30032/2343 SLP047 60000 T00501028 10100 20050 53031
Conditions at: KMDT (MIDDLETOWN , PA, US) observed 2356 UTC 22 March 2019
Temperature: 5.0°C (41°F)
Dewpoint: -2.8°C (27°F) [RH = 57%]
Pressure (altimeter): 29.66 inches Hg (1004.5 mb)
[Sea-level pressure: 1004.7 mb]
Winds: from the WNW (300 degrees) at 23 MPH (20 knots; 10.3 m/s)
gusting to 34 MPH (30 knots; 15.4 m/s)
Visibility: 10 or more miles (16+ km)
Ceiling: at least 12,000 feet AGL
Clouds: few clouds at 7500 feet AGL
scattered clouds at 15000 feet AGL
Weather: no significant weather observed at this time

METAR text: KMDT 222256Z 30022G34KT 10SM SCT060 BKN075 06/M02 A2964 RMK AO2 PK WND 30041/2222 PRESRR SLP038 T00561017
Conditions at: KMDT (MIDDLETOWN , PA, US) observed 2256 UTC 22 March 2019
Temperature: 5.6°C (42°F)
Dewpoint: -1.7°C (29°F) [RH = 59%]
Pressure (altimeter): 29.64 inches Hg (1003.8 mb)
[Sea-level pressure: 1003.8 mb]
Winds: from the WNW (300 degrees) at 25 MPH (22 knots; 11.3 m/s)
gusting to 39 MPH (34 knots; 17.5 m/s)
Visibility: 10 or more miles (16+ km)
Ceiling: 7500 feet AGL
Clouds: scattered clouds at 6000 feet AGL
broken clouds at 7500 feet AGL
Weather: no significant weather observed at this time

METAR text: KMDT 222156Z 31027G37KT 10SM SCT060 SCT110 08/M03 A2957 RMK AO2 PK WND 29037/2153 RAE10 SLP015 P0000 T00781033
Conditions at: KMDT (MIDDLETOWN , PA, US) observed 2156 UTC 22 March 2019
Temperature: 7.8°C (46°F)
Dewpoint: -3.3°C (26°F) [RH = 45%]
Pressure (altimeter): 29.57 inches Hg (1001.4 mb)
[Sea-level pressure: 1001.5 mb]
Winds: from the NW (310 degrees) at 31 MPH (27 knots; 13.9 m/s)
gusting to 43 MPH (37 knots; 19.0 m/s)
Visibility: 10 or more miles (16+ km)
Ceiling: at least 12,000 feet AGL
Clouds: scattered clouds at 6000 feet AGL
scattered clouds at 11000 feet AGL
Weather: no significant weather observed at this time

METAR text: KMDT 222056Z 31027G45KT 9SM -RA FEW037 BKN047 BKN065 06/M01 A2957 RMK AO2 PK WND 31045/2053 RAB53 PRESRR SLP016 P0000 60000 T00611006 53004
Conditions at: KMDT (MIDDLETOWN , PA, US) observed 2056 UTC 22 March 2019
Temperature: 6.1°C (43°F)
Dewpoint: -0.6°C (31°F) [RH = 62%]
Pressure (altimeter): 29.57 inches Hg (1001.4 mb)
[Sea-level pressure: 1001.6 mb]
Winds: from the NW (310 degrees) at 31 MPH (27 knots; 13.9 m/s)
gusting to 52 MPH (45 knots; 23.1 m/s)
Visibility: 9 miles (14 km)
Ceiling: 4700 feet AGL
Clouds: few clouds at 3700 feet AGL
broken clouds at 4700 feet AGL
broken clouds at 6500 feet AGL
Weather: -RA  (light rain)

METAR text: KMDT 221956Z 29018G27KT 10SM SCT040 BKN055 08/01 A2954 RMK AO2 PK WND 29034/1914 RAE42 SLP005 P0000 T00830006
Conditions at: KMDT (MIDDLETOWN , PA, US) observed 1956 UTC 22 March 2019
Temperature: 8.3°C (47°F)
Dewpoint: 0.6°C (33°F) [RH = 58%]
Pressure (altimeter): 29.54 inches Hg (1000.4 mb)
[Sea-level pressure: 1000.5 mb]
Winds: from the WNW (290 degrees) at 21 MPH (18 knots; 9.3 m/s)
gusting to 31 MPH (27 knots; 13.9 m/s)
Visibility: 10 or more miles (16+ km)
Ceiling: 5500 feet AGL
Clouds: scattered clouds at 4000 feet AGL
broken clouds at 5500 feet AGL
Weather: no significant weather observed at this time

METAR text: KMDT 221856Z 28019G29KT 10SM -RA BKN048 BKN060 08/M01 A2954 RMK AO2 PK WND 28029/1850 RAB55 SLP005 P0000 T00831006
Conditions at: KMDT (MIDDLETOWN , PA, US) observed 1856 UTC 22 March 2019
Temperature: 8.3°C (47°F)
Dewpoint: -0.6°C (31°F) [RH = 53%]
Pressure (altimeter): 29.54 inches Hg (1000.4 mb)
[Sea-level pressure: 1000.5 mb]
Winds: from the W (280 degrees) at 22 MPH (19 knots; 9.8 m/s)
gusting to 33 MPH (29 knots; 14.9 m/s)
Visibility: 10 or more miles (16+ km)
Ceiling: 4800 feet AGL
Clouds: broken clouds at 4800 feet AGL
broken clouds at 6000 feet AGL
Weather: -RA  (light rain)

METAR text: KMDT 221756Z 30022G28KT 10SM SCT045 BKN050 BKN065 09/M01 A2956 RMK AO2 PK WND 30028/1755 SLP010 T00891011 10094 20056 58009
Conditions at: KMDT (MIDDLETOWN , PA, US) observed 1756 UTC 22 March 2019
Temperature: 8.9°C (48°F)
Dewpoint: -1.1°C (30°F) [RH = 49%]
Pressure (altimeter): 29.56 inches Hg (1001.1 mb)
[Sea-level pressure: 1001.0 mb]
Winds: from the WNW (300 degrees) at 25 MPH (22 knots; 11.3 m/s)
gusting to 32 MPH (28 knots; 14.4 m/s)
Visibility: 10 or more miles (16+ km)
Ceiling: 5000 feet AGL
Clouds: scattered clouds at 4500 feet AGL
broken clouds at 5000 feet AGL
broken clouds at 6500 feet AGL
Weather: no significant weather observed at this time

METAR text: KMDT 221656Z 30017G24KT 10SM BKN040 BKN048 07/M01 A2959 RMK AO2 PK WND 30029/1557 SLP020 T00721006
Conditions at: KMDT (MIDDLETOWN , PA, US) observed 1656 UTC 22 March 2019
Temperature: 7.2°C (45°F)
Dewpoint: -0.6°C (31°F) [RH = 58%]
Pressure (altimeter): 29.59 inches Hg (1002.1 mb)
[Sea-level pressure: 1002.0 mb]
Winds: from the WNW (300 degrees) at 20 MPH (17 knots; 8.7 m/s)
gusting to 28 MPH (24 knots; 12.3 m/s)
Visibility: 10 or more miles (16+ km)
Ceiling: 4000 feet AGL
Clouds: broken clouds at 4000 feet AGL
broken clouds at 4800 feet AGL
Weather: no significant weather observed at this time

METAR text: KMDT 221556Z 30027G33KT 10SM OVC048 07/M01 A2958 RMK AO2 PK WND 31033/1554 SLP017 T00721011
Conditions at: KMDT (MIDDLETOWN , PA, US) observed 1556 UTC 22 March 2019
Temperature: 7.2°C (45°F)
Dewpoint: -1.1°C (30°F) [RH = 56%]
Pressure (altimeter): 29.58 inches Hg (1001.8 mb)
[Sea-level pressure: 1001.7 mb]
Winds: from the WNW (300 degrees) at 31 MPH (27 knots; 13.9 m/s)
gusting to 38 MPH (33 knots; 17.0 m/s)
Visibility: 10 or more miles (16+ km)
Ceiling: 4800 feet AGL
Clouds: overcast cloud deck at 4800 feet AGL
Weather: no significant weather observed at this time

METAR text: KMDT 221456Z 31015G23KT 10SM OVC046 07/M01 A2958 RMK AO2 PK WND 29026/1444 SLP019 T00671011 51011
Conditions at: KMDT (MIDDLETOWN , PA, US) observed 1456 UTC 22 March 2019
Temperature: 6.7°C (44°F)
Dewpoint: -1.1°C (30°F) [RH = 57%]
Pressure (altimeter): 29.58 inches Hg (1001.8 mb)
[Sea-level pressure: 1001.9 mb]
Winds: from the NW (310 degrees) at 17 MPH (15 knots; 7.7 m/s)
gusting to 26 MPH (23 knots; 11.8 m/s)
Visibility: 10 or more miles (16+ km)
Ceiling: 4600 feet AGL
Clouds: overcast cloud deck at 4600 feet AGL
Weather: no significant weather observed at this time

METAR text: KMDT 221356Z 31018G27KT 10SM OVC046 06/M01 A2958 RMK AO2 PK WND 31030/1343 SLP018 T00611006
Conditions at: KMDT (MIDDLETOWN , PA, US) observed 1356 UTC 22 March 2019
Temperature: 6.1°C (43°F)
Dewpoint: -0.6°C (31°F) [RH = 62%]
Pressure (altimeter): 29.58 inches Hg (1001.8 mb)
[Sea-level pressure: 1001.8 mb]
Winds: from the NW (310 degrees) at 21 MPH (18 knots; 9.3 m/s)
gusting to 31 MPH (27 knots; 13.9 m/s)
Visibility: 10 or more miles (16+ km)
Ceiling: 4600 feet AGL
Clouds: overcast cloud deck at 4600 feet AGL
Weather: no significant weather observed at this time

METAR text: KMDT 221256Z 32016G26KT 10SM OVC037 06/M01 A2958 RMK AO2 PK WND 32030/1230 SLP018 T00561006
Conditions at: KMDT (MIDDLETOWN , PA, US) observed 1256 UTC 22 March 2019
Temperature: 5.6°C (42°F)
Dewpoint: -0.6°C (31°F) [RH = 64%]
Pressure (altimeter): 29.58 inches Hg (1001.8 mb)
[Sea-level pressure: 1001.8 mb]
Winds: from the NW (320 degrees) at 18 MPH (16 knots; 8.2 m/s)
gusting to 30 MPH (26 knots; 13.4 m/s)
Visibility: 10 or more miles (16+ km)
Ceiling: 3700 feet AGL
Clouds: overcast cloud deck at 3700 feet AGL
Weather: no significant weather observed at this time

METAR text: KMDT 221156Z 31019G28KT 10SM OVC032 06/01 A2955 RMK AO2 PK WND 32035/1102 SLP008 60021 70234 T00610006 10067 20050 53013
Conditions at: KMDT (MIDDLETOWN , PA, US) observed 1156 UTC 22 March 2019
Temperature: 6.1°C (43°F)
Dewpoint: 0.6°C (33°F) [RH = 68%]
Pressure (altimeter): 29.55 inches Hg (1000.8 mb)
[Sea-level pressure: 1000.8 mb]
Winds: from the NW (310 degrees) at 22 MPH (19 knots; 9.8 m/s)
gusting to 32 MPH (28 knots; 14.4 m/s)
Visibility: 10 or more miles (16+ km)
Ceiling: 3200 feet AGL
Clouds: overcast cloud deck at 3200 feet AGL
Weather: no significant weather observed at this time

METAR text: KMDT 221056Z 31024G31KT 10SM OVC032 07/02 A2952 RMK AO2 PK WND 29034/1044 RAE28 SLP998 P0000 T00670017
Conditions at: KMDT (MIDDLETOWN , PA, US) observed 1056 UTC 22 March 2019
Temperature: 6.7°C (44°F)
Dewpoint: 1.7°C (35°F) [RH = 70%]
Pressure (altimeter): 29.52 inches Hg (999.7 mb)
[Sea-level pressure:  999.8 mb]
Winds: from the NW (310 degrees) at 28 MPH (24 knots; 12.3 m/s)
gusting to 36 MPH (31 knots; 15.9 m/s)
Visibility: 10 or more miles (16+ km)
Ceiling: 3200 feet AGL
Clouds: overcast cloud deck at 3200 feet AGL
Weather: no significant weather observed at this time

METAR text: KMDT 221049Z 31018G34KT 10SM OVC030 07/02 A2952 RMK AO2 PK WND 29034/1044 RAE28 P0000 T00670017
Conditions at: KMDT (MIDDLETOWN , PA, US) observed 1049 UTC 22 March 2019
Temperature: 6.7°C (44°F)
Dewpoint: 1.7°C (35°F) [RH = 70%]
Pressure (altimeter): 29.52 inches Hg (999.7 mb)
Winds: from the NW (310 degrees) at 21 MPH (18 knots; 9.3 m/s)
gusting to 39 MPH (34 knots; 17.5 m/s)
Visibility: 10 or more miles (16+ km)
Ceiling: 3000 feet AGL
Clouds: overcast cloud deck at 3000 feet AGL
Weather: no significant weather observed at this time

METAR text: KMDT 220956Z 31017KT 10SM -RA OVC024 06/03 A2951 RMK AO2 RAE35B53 SLP995 P0000 T00610033
Conditions at: KMDT (MIDDLETOWN , PA, US) observed 0956 UTC 22 March 2019
Temperature: 6.1°C (43°F)
Dewpoint: 3.3°C (38°F) [RH = 82%]
Pressure (altimeter): 29.51 inches Hg (999.4 mb)
[Sea-level pressure:  999.5 mb]
Winds: from the NW (310 degrees) at 20 MPH (17 knots; 8.7 m/s)
Visibility: 10 or more miles (16+ km)
Ceiling: 2400 feet AGL
Clouds: overcast cloud deck at 2400 feet AGL
Weather: -RA  (light rain)

METAR text: KMDT 220856Z 32016G22KT 10SM -RA SCT020 OVC028 06/03 A2951 RMK AO2 SLP995 P0001 60021 T00560033 58012
Conditions at: KMDT (MIDDLETOWN , PA, US) observed 0856 UTC 22 March 2019
Temperature: 5.6°C (42°F)
Dewpoint: 3.3°C (38°F) [RH = 85%]
Pressure (altimeter): 29.51 inches Hg (999.4 mb)
[Sea-level pressure:  999.5 mb]
Winds: from the NW (320 degrees) at 18 MPH (16 knots; 8.2 m/s)
gusting to 25 MPH (22 knots; 11.3 m/s)
Visibility: 10 or more miles (16+ km)
Ceiling: 2800 feet AGL
Clouds: scattered clouds at 2000 feet AGL
overcast cloud deck at 2800 feet AGL
Weather: -RA  (light rain)

METAR text: KMDT 220830Z 31016KT 10SM -RA SCT020 BKN026 OVC050 06/03 A2951 RMK AO2 P0001 T00560033
Conditions at: KMDT (MIDDLETOWN , PA, US) observed 0830 UTC 22 March 2019
Temperature: 5.6°C (42°F)
Dewpoint: 3.3°C (38°F) [RH = 85%]
Pressure (altimeter): 29.51 inches Hg (999.4 mb)
Winds: from the NW (310 degrees) at 18 MPH (16 knots; 8.2 m/s)
Visibility: 10 or more miles (16+ km)
Ceiling: 2600 feet AGL
Clouds: scattered clouds at 2000 feet AGL
broken clouds at 2600 feet AGL
overcast cloud deck at 5000 feet AGL
Weather: -RA  (light rain)

METAR text: KMDT 220811Z 32018G22KT 10SM -RA SCT022 BKN039 OVC049 05/03 A2952 RMK AO2 P0001 T00500028
Conditions at: KMDT (MIDDLETOWN , PA, US) observed 0811 UTC 22 March 2019
Temperature: 5.0°C (41°F)
Dewpoint: 2.8°C (37°F) [RH = 86%]
Pressure (altimeter): 29.52 inches Hg (999.7 mb)
Winds: from the NW (320 degrees) at 21 MPH (18 knots; 9.3 m/s)
gusting to 25 MPH (22 knots; 11.3 m/s)
Visibility: 10 or more miles (16+ km)
Ceiling: 3900 feet AGL
Clouds: scattered clouds at 2200 feet AGL
broken clouds at 3900 feet AGL
overcast cloud deck at 4900 feet AGL
Weather: -RA  (light rain)

METAR text: KMDT 220756Z 32013KT 10SM -RA BKN022 OVC039 05/03 A2952 RMK AO2 SLP999 P0006 T00500028
Conditions at: KMDT (MIDDLETOWN , PA, US) observed 0756 UTC 22 March 2019
Temperature: 5.0°C (41°F)
Dewpoint: 2.8°C (37°F) [RH = 86%]
Pressure (altimeter): 29.52 inches Hg (999.7 mb)
[Sea-level pressure:  999.9 mb]
Winds: from the NW (320 degrees) at 15 MPH (13 knots; 6.7 m/s)
Visibility: 10 or more miles (16+ km)
Ceiling: 2200 feet AGL
Clouds: broken clouds at 2200 feet AGL
overcast cloud deck at 3900 feet AGL
Weather: -RA  (light rain)

METAR text: KMDT 220747Z 33012KT 10SM -RA BKN020 OVC034 05/03 A2953 RMK AO2 P0006 T00500028
Conditions at: KMDT (MIDDLETOWN , PA, US) observed 0747 UTC 22 March 2019
Temperature: 5.0°C (41°F)
Dewpoint: 2.8°C (37°F) [RH = 86%]
Pressure (altimeter): 29.53 inches Hg (1000.1 mb)
Winds: from the NNW (330 degrees) at 14 MPH (12 knots; 6.2 m/s)
Visibility: 10 or more miles (16+ km)
Ceiling: 2000 feet AGL
Clouds: broken clouds at 2000 feet AGL
overcast cloud deck at 3400 feet AGL
Weather: -RA  (light rain)

METAR text: KMDT 220720Z 32013KT 8SM -RA FEW015 FEW023 OVC037 05/03 A2953 RMK AO2 P0004 T00500028
Conditions at: KMDT (MIDDLETOWN , PA, US) observed 0720 UTC 22 March 2019
Temperature: 5.0°C (41°F)
Dewpoint: 2.8°C (37°F) [RH = 86%]
Pressure (altimeter): 29.53 inches Hg (1000.1 mb)
Winds: from the NW (320 degrees) at 15 MPH (13 knots; 6.7 m/s)
Visibility: 8 miles (13 km)
Ceiling: 3700 feet AGL
Clouds: few clouds at 1500 feet AGL
few clouds at 2300 feet AGL
overcast cloud deck at 3700 feet AGL
Weather: -RA  (light rain)

METAR text: KMDT 220656Z 33015KT 7SM RA SCT015 BKN019 OVC036 06/03 A2954 RMK AO2 SLP004 P0014 T00560028
Conditions at: KMDT (MIDDLETOWN , PA, US) observed 0656 UTC 22 March 2019
Temperature: 5.6°C (42°F)
Dewpoint: 2.8°C (37°F) [RH = 82%]
Pressure (altimeter): 29.54 inches Hg (1000.4 mb)
[Sea-level pressure: 1000.4 mb]
Winds: from the NNW (330 degrees) at 17 MPH (15 knots; 7.7 m/s)
Visibility: 7 miles (11 km)
Ceiling: 1900 feet AGL
Clouds: scattered clouds at 1500 feet AGL
broken clouds at 1900 feet AGL
overcast cloud deck at 3600 feet AGL
Weather: RA  (moderate rain)

METAR text: KMDT 220639Z 33013KT 6SM RA BR SCT013 BKN019 OVC038 06/04 A2954 RMK AO2 P0010 T00560039
Conditions at: KMDT (MIDDLETOWN , PA, US) observed 0639 UTC 22 March 2019
Temperature: 5.6°C (42°F)
Dewpoint: 3.9°C (39°F) [RH = 89%]
Pressure (altimeter): 29.54 inches Hg (1000.4 mb)
Winds: from the NNW (330 degrees) at 15 MPH (13 knots; 6.7 m/s)
Visibility: 6 miles (10 km)
Ceiling: 1900 feet AGL
Clouds: scattered clouds at 1300 feet AGL
broken clouds at 1900 feet AGL
overcast cloud deck at 3800 feet AGL
Weather: RA BR  (moderate rain, mist)

METAR text: KMDT 220556Z 34013G20KT 6SM RA BR SCT018 OVC033 07/04 A2955 RMK AO2 SLP007 P0011 60068 T00670044 10089 20067 58014
Conditions at: KMDT (MIDDLETOWN , PA, US) observed 0556 UTC 22 March 2019
Temperature: 6.7°C (44°F)
Dewpoint: 4.4°C (40°F) [RH = 85%]
Pressure (altimeter): 29.55 inches Hg (1000.8 mb)
[Sea-level pressure: 1000.7 mb]
Winds: from the NNW (340 degrees) at 15 MPH (13 knots; 6.7 m/s)
gusting to 23 MPH (20 knots; 10.3 m/s)
Visibility: 6 miles (10 km)
Ceiling: 3300 feet AGL
Clouds: scattered clouds at 1800 feet AGL
overcast cloud deck at 3300 feet AGL
Weather: RA BR  (moderate rain, mist)

METAR text: KMDT 220456Z 34012KT 9SM -RA OVC034 07/04 A2956 RMK AO2 SLP011 P0002 T00670044 400890039
Conditions at: KMDT (MIDDLETOWN , PA, US) observed 0456 UTC 22 March 2019
Temperature: 6.7°C (44°F)
Dewpoint: 4.4°C (40°F) [RH = 85%]
Pressure (altimeter): 29.56 inches Hg (1001.1 mb)
[Sea-level pressure: 1001.1 mb]
Winds: from the NNW (340 degrees) at 14 MPH (12 knots; 6.2 m/s)
Visibility: 9 miles (14 km)
Ceiling: 3400 feet AGL
Clouds: overcast cloud deck at 3400 feet AGL
Weather: -RA  (light rain)

METAR text: KMDT 220356Z 34014KT 10SM -RA BKN030 OVC038 07/05 A2958 RMK AO2 SLP018 P0004 T00720050
Conditions at: KMDT (MIDDLETOWN , PA, US) observed 0356 UTC 22 March 2019
Temperature: 7.2°C (45°F)
Dewpoint: 5.0°C (41°F) [RH = 86%]
Pressure (altimeter): 29.58 inches Hg (1001.8 mb)
[Sea-level pressure: 1001.8 mb]
Winds: from the NNW (340 degrees) at 16 MPH (14 knots; 7.2 m/s)
Visibility: 10 or more miles (16+ km)
Ceiling: 3000 feet AGL
Clouds: broken clouds at 3000 feet AGL
overcast cloud deck at 3800 feet AGL
Weather: -RA  (light rain)

METAR text: KMDT 220256Z 36010G18KT 9SM -RA FEW025 OVC036 08/06 A2959 RMK AO2 SLP022 P0012 60051 T00780056 58006
Conditions at: KMDT (MIDDLETOWN , PA, US) observed 0256 UTC 22 March 2019
Temperature: 7.8°C (46°F)
Dewpoint: 5.6°C (42°F) [RH = 86%]
Pressure (altimeter): 29.59 inches Hg (1002.1 mb)
[Sea-level pressure: 1002.2 mb]
Winds: from the N (360 degrees) at 12 MPH (10 knots; 5.1 m/s)
gusting to 21 MPH (18 knots; 9.3 m/s)
Visibility: 9 miles (14 km)
Ceiling: 3600 feet AGL
Clouds: few clouds at 2500 feet AGL
overcast cloud deck at 3600 feet AGL
Weather: -RA  (light rain)

METAR text: KMDT 220233Z 35010KT 6SM RA BR FEW015 OVC034 08/07 A2960 RMK AO2 P0009 T00780067
Conditions at: KMDT (MIDDLETOWN , PA, US) observed 0233 UTC 22 March 2019
Temperature: 7.8°C (46°F)
Dewpoint: 6.7°C (44°F) [RH = 93%]
Pressure (altimeter): 29.60 inches Hg (1002.5 mb)
Winds: from the N (350 degrees) at 12 MPH (10 knots; 5.1 m/s)
Visibility: 6 miles (10 km)
Ceiling: 3400 feet AGL
Clouds: few clouds at 1500 feet AGL
overcast cloud deck at 3400 feet AGL
Weather: RA BR  (moderate rain, mist)

METAR text: KMDT 220223Z 33009KT 5SM RA BR FEW010 BKN016 OVC029 08/07 A2961 RMK AO2 P0007 T00780067
Conditions at: KMDT (MIDDLETOWN , PA, US) observed 0223 UTC 22 March 2019
Temperature: 7.8°C (46°F)
Dewpoint: 6.7°C (44°F) [RH = 93%]
Pressure (altimeter): 29.61 inches Hg (1002.8 mb)
Winds: from the NNW (330 degrees) at 10 MPH (9 knots; 4.6 m/s)
Visibility: 5 miles ( 8 km)
Ceiling: 1600 feet AGL
Clouds: few clouds at 1000 feet AGL
broken clouds at 1600 feet AGL
overcast cloud deck at 2900 feet AGL
Weather: RA BR  (moderate rain, mist)

METAR text: KMDT 220156Z 30010KT 3SM RA BR SCT008 OVC013 07/06 A2962 RMK AO2 SLP034 P0028 T00720061
Conditions at: KMDT (MIDDLETOWN , PA, US) observed 0156 UTC 22 March 2019
Temperature: 7.2°C (45°F)
Dewpoint: 6.1°C (43°F) [RH = 93%]
Pressure (altimeter): 29.62 inches Hg (1003.1 mb)
[Sea-level pressure: 1003.4 mb]
Winds: from the WNW (300 degrees) at 12 MPH (10 knots; 5.1 m/s)
Visibility: 3 miles ( 5 km)
Ceiling: 1300 feet AGL
Clouds: scattered clouds at 800 feet AGL
overcast cloud deck at 1300 feet AGL
Weather: RA BR  (moderate rain, mist)

METAR text: KMDT 220153Z 30010KT 3SM RA BR BKN010 OVC017 08/07 A2962 RMK AO2 P0027
Conditions at: KMDT (MIDDLETOWN , PA, US) observed 0153 UTC 22 March 2019
Temperature: 8.0°C (46°F)
Dewpoint: 7.0°C (45°F) [RH = 93%]
Pressure (altimeter): 29.62 inches Hg (1003.1 mb)
Winds: from the WNW (300 degrees) at 12 MPH (10 knots; 5.1 m/s)
Visibility: 3 miles ( 5 km)
Ceiling: 1000 feet AGL
Clouds: broken clouds at 1000 feet AGL
overcast cloud deck at 1700 feet AGL
Weather: RA BR  (moderate rain, mist)

METAR text: KMDT 220142Z 33008KT 2 1/2SM +RA BR OVC010 08/07 A2962 RMK AO2 P0020 T00780067
Conditions at: KMDT (MIDDLETOWN , PA, US) observed 0142 UTC 22 March 2019
Temperature: 7.8°C (46°F)
Dewpoint: 6.7°C (44°F) [RH = 93%]
Pressure (altimeter): 29.62 inches Hg (1003.1 mb)
Winds: from the NNW (330 degrees) at 9 MPH (8 knots; 4.1 m/s)
Visibility: 2.50 miles (4.02 km)
Ceiling: 1000 feet AGL
Clouds: overcast cloud deck at 1000 feet AGL
Weather: +RA BR  (heavy rain, mist)

METAR text: KMDT 220056Z 01009G16KT 320V020 3SM +RA BR OVC010 08/07 A2961 RMK AO2 CIG 008V014 SLP028 P0011 T00830067
Conditions at: KMDT (MIDDLETOWN , PA, US) observed 0056 UTC 22 March 2019
Temperature: 8.3°C (47°F)
Dewpoint: 6.7°C (44°F) [RH = 90%]
Pressure (altimeter): 29.61 inches Hg (1002.8 mb)
[Sea-level pressure: 1002.8 mb]
Winds: from the N (10 degrees) at 10 MPH (9 knots; 4.6 m/s)
gusting to 18 MPH (16 knots; 8.2 m/s)
Visibility: 3 miles ( 5 km)
Ceiling: 1000 feet AGL
Clouds: overcast cloud deck at 1000 feet AGL
Weather: +RA BR  (heavy rain, mist)

METAR text: KMDT 220035Z 35008KT 9SM -RA OVC010 08/07 A2961 RMK AO2 CIG 007V013 P0006 T00830072
Conditions at: KMDT (MIDDLETOWN , PA, US) observed 0035 UTC 22 March 2019
Temperature: 8.3°C (47°F)
Dewpoint: 7.2°C (45°F) [RH = 93%]
Pressure (altimeter): 29.61 inches Hg (1002.8 mb)
Winds: from the N (350 degrees) at 9 MPH (8 knots; 4.1 m/s)
Visibility: 9 miles (14 km)
Ceiling: 1000 feet AGL
Clouds: overcast cloud deck at 1000 feet AGL
Weather: -RA  (light rain)

METAR text: KMDT 212356Z 01007KT 5SM RA BR BKN009 BKN015 OVC020 09/07 A2963 RMK AO2 SLP037 P0018 60070 T00890072 10089 20067 56035
Conditions at: KMDT (MIDDLETOWN , PA, US) observed 2356 UTC 21 March 2019
Temperature: 8.9°C (48°F)
Dewpoint: 7.2°C (45°F) [RH = 89%]
Pressure (altimeter): 29.63 inches Hg (1003.5 mb)
[Sea-level pressure: 1003.7 mb]
Winds: from the N (10 degrees) at 8 MPH (7 knots; 3.6 m/s)
Visibility: 5 miles ( 8 km)
Ceiling: 900 feet AGL
Clouds: broken clouds at 900 feet AGL
broken clouds at 1500 feet AGL
overcast cloud deck at 2000 feet AGL
Weather: RA BR  (moderate rain, mist)

METAR text: KMDT 212256Z 03005KT 5SM RA BR SCT007 BKN019 OVC037 08/07 A2967 RMK AO2 SLP048 P0011 T00830072
Conditions at: KMDT (MIDDLETOWN , PA, US) observed 2256 UTC 21 March 2019
Temperature: 8.3°C (47°F)
Dewpoint: 7.2°C (45°F) [RH = 93%]
Pressure (altimeter): 29.67 inches Hg (1004.8 mb)
[Sea-level pressure: 1004.8 mb]
Winds: from the NNE (30 degrees) at 6 MPH (5 knots; 2.6 m/s)
Visibility: 5 miles ( 8 km)
Ceiling: 1900 feet AGL
Clouds: scattered clouds at 700 feet AGL
broken clouds at 1900 feet AGL
overcast cloud deck at 3700 feet AGL
Weather: RA BR  (moderate rain, mist)

METAR text: KMDT 212246Z 04008KT 4SM -RA BR FEW007 BKN011 OVC050 08/07 A2967 RMK AO2 P0010 T00830072
Conditions at: KMDT (MIDDLETOWN , PA, US) observed 2246 UTC 21 March 2019
Temperature: 8.3°C (47°F)
Dewpoint: 7.2°C (45°F) [RH = 93%]
Pressure (altimeter): 29.67 inches Hg (1004.8 mb)
Winds: from the NE (40 degrees) at 9 MPH (8 knots; 4.1 m/s)
Visibility: 4 miles ( 6 km)
Ceiling: 1100 feet AGL
Clouds: few clouds at 700 feet AGL
broken clouds at 1100 feet AGL
overcast cloud deck at 5000 feet AGL
Weather: -RA BR  (light rain, mist)

METAR text: KMDT 212222Z VRB03KT 4SM -RA BR BKN008 OVC015 08/07 A2969 RMK AO2 CIG 005V010 P0005 T00830072
Conditions at: KMDT (MIDDLETOWN , PA, US) observed 2222 UTC 21 March 2019
Temperature: 8.3°C (47°F)
Dewpoint: 7.2°C (45°F) [RH = 93%]
Pressure (altimeter): 29.69 inches Hg (1005.5 mb)
Winds: variable direction winds at 3 MPH (3 knots; 1.5 m/s)
Visibility: 4 miles ( 6 km)
Ceiling: 800 feet AGL
Clouds: broken clouds at 800 feet AGL
overcast cloud deck at 1500 feet AGL
Weather: -RA BR  (light rain, mist)

METAR text: KMDT 212212Z VRB05KT 2 1/2SM RA BR OVC007 08/07 A2969 RMK AO2 P0003 T00830072
Conditions at: KMDT (MIDDLETOWN , PA, US) observed 2212 UTC 21 March 2019
Temperature: 8.3°C (47°F)
Dewpoint: 7.2°C (45°F) [RH = 93%]
Pressure (altimeter): 29.69 inches Hg (1005.5 mb)
Winds: variable direction winds at 6 MPH (5 knots; 2.6 m/s)
Visibility: 2.50 miles (4.02 km)
Ceiling: 700 feet AGL
Clouds: overcast cloud deck at 700 feet AGL
Weather: RA BR  (moderate rain, mist)

METAR text: KMDT 212203Z 00000KT 1 3/4SM R13/5000VP6000FT -RA BR OVC007 08/07 A2969 RMK AO2 CIG 006V012 P0001 T00830072
Conditions at: KMDT (MIDDLETOWN , PA, US) observed 2203 UTC 21 March 2019
Temperature: 8.3°C (47°F)
Dewpoint: 7.2°C (45°F) [RH = 93%]
Pressure (altimeter): 29.69 inches Hg (1005.5 mb)
Winds: calm
Visibility: 1.75 miles (2.82 km)
Ceiling: 700 feet AGL
Clouds: overcast cloud deck at 700 feet AGL
Weather: -RA BR  (light rain, mist)

METAR text: KMDT 212156Z 36005KT 2SM -RA BR BKN007 OVC013 08/07 A2969 RMK AO2 CIG 006V010 SLP057 P0009 T00830072
Conditions at: KMDT (MIDDLETOWN , PA, US) observed 2156 UTC 21 March 2019
Temperature: 8.3°C (47°F)
Dewpoint: 7.2°C (45°F) [RH = 93%]
Pressure (altimeter): 29.69 inches Hg (1005.5 mb)
[Sea-level pressure: 1005.7 mb]
Winds: from the N (360 degrees) at 6 MPH (5 knots; 2.6 m/s)
Visibility: 2.00 miles (3.22 km)
Ceiling: 700 feet AGL
Clouds: broken clouds at 700 feet AGL
overcast cloud deck at 1300 feet AGL
Weather: -RA BR  (light rain, mist)

METAR text: KMDT 212128Z VRB04KT 4SM -RA BR OVC008 08/07 A2971 RMK AO2 CIG 006V010 P0008 T00830072
Conditions at: KMDT (MIDDLETOWN , PA, US) observed 2128 UTC 21 March 2019
Temperature: 8.3°C (47°F)
Dewpoint: 7.2°C (45°F) [RH = 93%]
Pressure (altimeter): 29.71 inches Hg (1006.2 mb)
Winds: variable direction winds at 5 MPH (4 knots; 2.1 m/s)
Visibility: 4 miles ( 6 km)
Ceiling: 800 feet AGL
Clouds: overcast cloud deck at 800 feet AGL
Weather: -RA BR  (light rain, mist)

METAR text: KMDT 212111Z VRB03KT 2SM RA BR OVC009 08/07 A2973 RMK AO2 CIG 006V013 P0004 T00830067
Conditions at: KMDT (MIDDLETOWN , PA, US) observed 2111 UTC 21 March 2019
Temperature: 8.3°C (47°F)
Dewpoint: 6.7°C (44°F) [RH = 90%]
Pressure (altimeter): 29.73 inches Hg (1006.9 mb)
Winds: variable direction winds at 3 MPH (3 knots; 1.5 m/s)
Visibility: 2.00 miles (3.22 km)
Ceiling: 900 feet AGL
Clouds: overcast cloud deck at 900 feet AGL
Weather: RA BR  (moderate rain, mist)

METAR text: KMDT 212056Z VRB05KT 3SM RA BR BKN009 BKN014 OVC020 08/07 A2974 RMK AO2 CIG 007V011 SLP071 P0014 60032 T00830067 56049
Conditions at: KMDT (MIDDLETOWN , PA, US) observed 2056 UTC 21 March 2019
Temperature: 8.3°C (47°F)
Dewpoint: 6.7°C (44°F) [RH = 90%]
Pressure (altimeter): 29.74 inches Hg (1007.2 mb)
[Sea-level pressure: 1007.1 mb]
Winds: variable direction winds at 6 MPH (5 knots; 2.6 m/s)
Visibility: 3 miles ( 5 km)
Ceiling: 900 feet AGL
Clouds: broken clouds at 900 feet AGL
broken clouds at 1400 feet AGL
overcast cloud deck at 2000 feet AGL
Weather: RA BR  (moderate rain, mist)

METAR text: KMDT 212052Z VRB04KT 3SM RA BR BKN009 BKN014 OVC025 08/07 A2974 RMK AO2 CIG 008V011 P0012
Conditions at: KMDT (MIDDLETOWN , PA, US) observed 2052 UTC 21 March 2019
Temperature: 8.0°C (46°F)
Dewpoint: 7.0°C (45°F) [RH = 93%]
Pressure (altimeter): 29.74 inches Hg (1007.2 mb)
Winds: variable direction winds at 5 MPH (4 knots; 2.1 m/s)
Visibility: 3 miles ( 5 km)
Ceiling: 900 feet AGL
Clouds: broken clouds at 900 feet AGL
broken clouds at 1400 feet AGL
overcast cloud deck at 2500 feet AGL
Weather: RA BR  (moderate rain, mist)

METAR text: KMDT 212035Z 04008KT 3SM R13/6000VP6000FT RA BR FEW007 SCT018 OVC028 08/07 A2975 RMK AO2 P0010 T00780067
Conditions at: KMDT (MIDDLETOWN , PA, US) observed 2035 UTC 21 March 2019
Temperature: 7.8°C (46°F)
Dewpoint: 6.7°C (44°F) [RH = 93%]
Pressure (altimeter): 29.75 inches Hg (1007.5 mb)
Winds: from the NE (40 degrees) at 9 MPH (8 knots; 4.1 m/s)
Visibility: 3 miles ( 5 km)
Ceiling: 2800 feet AGL
Clouds: few clouds at 700 feet AGL
scattered clouds at 1800 feet AGL
overcast cloud deck at 2800 feet AGL
Weather: RA BR  (moderate rain, mist)

METAR text: KMDT 212022Z 04006KT 3SM RA BR FEW008 SCT018 OVC030 08/07 A2976 RMK AO2 P0006 T00780067
Conditions at: KMDT (MIDDLETOWN , PA, US) observed 2022 UTC 21 March 2019
Temperature: 7.8°C (46°F)
Dewpoint: 6.7°C (44°F) [RH = 93%]
Pressure (altimeter): 29.76 inches Hg (1007.9 mb)
Winds: from the NE (40 degrees) at 7 MPH (6 knots; 3.1 m/s)
Visibility: 3 miles ( 5 km)
Ceiling: 3000 feet AGL
Clouds: few clouds at 800 feet AGL
scattered clouds at 1800 feet AGL
overcast cloud deck at 3000 feet AGL
Weather: RA BR  (moderate rain, mist)

METAR text: KMDT 212003Z 04005KT 3SM RA BR SCT007 BKN022 OVC048 08/06 A2977 RMK AO2 P0001 T00780061
Conditions at: KMDT (MIDDLETOWN , PA, US) observed 2003 UTC 21 March 2019
Temperature: 7.8°C (46°F)
Dewpoint: 6.1°C (43°F) [RH = 89%]
Pressure (altimeter): 29.77 inches Hg (1008.2 mb)
Winds: from the NE (40 degrees) at 6 MPH (5 knots; 2.6 m/s)
Visibility: 3 miles ( 5 km)
Ceiling: 2200 feet AGL
Clouds: scattered clouds at 700 feet AGL
broken clouds at 2200 feet AGL
overcast cloud deck at 4800 feet AGL
Weather: RA BR  (moderate rain, mist)

METAR text: KMDT 211956Z 05008KT 4SM -RA BR FEW007 BKN041 OVC048 08/06 A2978 RMK AO2 SLP086 P0008 T00780061
Conditions at: KMDT (MIDDLETOWN , PA, US) observed 1956 UTC 21 March 2019
Temperature: 7.8°C (46°F)
Dewpoint: 6.1°C (43°F) [RH = 89%]
Pressure (altimeter): 29.78 inches Hg (1008.5 mb)
[Sea-level pressure: 1008.6 mb]
Winds: from the NE (50 degrees) at 9 MPH (8 knots; 4.1 m/s)
Visibility: 4 miles ( 6 km)
Ceiling: 4100 feet AGL
Clouds: few clouds at 700 feet AGL
broken clouds at 4100 feet AGL
overcast cloud deck at 4800 feet AGL
Weather: -RA BR  (light rain, mist)

METAR text: KMDT 211946Z 03006KT 4SM -RA BR SCT007 SCT024 OVC047 08/06 A2977 RMK AO2 P0006 T00780061
Conditions at: KMDT (MIDDLETOWN , PA, US) observed 1946 UTC 21 March 2019
Temperature: 7.8°C (46°F)
Dewpoint: 6.1°C (43°F) [RH = 89%]
Pressure (altimeter): 29.77 inches Hg (1008.2 mb)
Winds: from the NNE (30 degrees) at 7 MPH (6 knots; 3.1 m/s)
Visibility: 4 miles ( 6 km)
Ceiling: 4700 feet AGL
Clouds: scattered clouds at 700 feet AGL
scattered clouds at 2400 feet AGL
overcast cloud deck at 4700 feet AGL
Weather: -RA BR  (light rain, mist)

METAR text: KMDT 211856Z VRB05KT 5SM -RA BR BKN006 OVC010 07/06 A2982 RMK AO2 SLP101 P0010 T00720056
Conditions at: KMDT (MIDDLETOWN , PA, US) observed 1856 UTC 21 March 2019
Temperature: 7.2°C (45°F)
Dewpoint: 5.6°C (42°F) [RH = 90%]
Pressure (altimeter): 29.82 inches Hg (1009.9 mb)
[Sea-level pressure: 1010.1 mb]
Winds: variable direction winds at 6 MPH (5 knots; 2.6 m/s)
Visibility: 5 miles ( 8 km)
Ceiling: 600 feet AGL
Clouds: broken clouds at 600 feet AGL
overcast cloud deck at 1000 feet AGL
Weather: -RA BR  (light rain, mist)

METAR text: KMDT 211841Z VRB04KT 4SM R13/4500VP6000FT RA BR OVC010 07/06 A2983 RMK AO2 PRESFR P0007 T00670056
Conditions at: KMDT (MIDDLETOWN , PA, US) observed 1841 UTC 21 March 2019
Temperature: 6.7°C (44°F)
Dewpoint: 5.6°C (42°F) [RH = 93%]
Pressure (altimeter): 29.83 inches Hg (1010.2 mb)
Winds: variable direction winds at 5 MPH (4 knots; 2.1 m/s)
Visibility: 4 miles ( 6 km)
Ceiling: 1000 feet AGL
Clouds: overcast cloud deck at 1000 feet AGL
Weather: RA BR  (moderate rain, mist)

METAR text: KMDT 211756Z 00000KT 3SM R13/4000VP6000FT -RA BR BKN008 OVC013 07/06 A2988 RMK AO2 CIG 006V010 SLP122 P0015 60075 T00670056 10067 20044 58024
Conditions at: KMDT (MIDDLETOWN , PA, US) observed 1756 UTC 21 March 2019
Temperature: 6.7°C (44°F)
Dewpoint: 5.6°C (42°F) [RH = 93%]
Pressure (altimeter): 29.88 inches Hg (1011.9 mb)
[Sea-level pressure: 1012.2 mb]
Winds: calm
Visibility: 3 miles ( 5 km)
Ceiling: 800 feet AGL
Clouds: broken clouds at 800 feet AGL
overcast cloud deck at 1300 feet AGL
Weather: -RA BR  (light rain, mist)

METAR text: KMDT 211737Z VRB03KT 4SM R13/1800VP6000FT RA BR FEW007 BKN012 OVC018 07/05 A2990 RMK AO2 P0009 T00670050
Conditions at: KMDT (MIDDLETOWN , PA, US) observed 1737 UTC 21 March 2019
Temperature: 6.7°C (44°F)
Dewpoint: 5.0°C (41°F) [RH = 89%]
Pressure (altimeter): 29.90 inches Hg (1012.6 mb)
Winds: variable direction winds at 3 MPH (3 knots; 1.5 m/s)
Visibility: 4 miles ( 6 km)
Ceiling: 1200 feet AGL
Clouds: few clouds at 700 feet AGL
broken clouds at 1200 feet AGL
overcast cloud deck at 1800 feet AGL
Weather: RA BR  (moderate rain, mist)

METAR text: KMDT 211728Z 05003KT 4SM RA BR BKN010 OVC016 07/05 A2990 RMK AO2 P0007 T00670050
Conditions at: KMDT (MIDDLETOWN , PA, US) observed 1728 UTC 21 March 2019
Temperature: 6.7°C (44°F)
Dewpoint: 5.0°C (41°F) [RH = 89%]
Pressure (altimeter): 29.90 inches Hg (1012.6 mb)
Winds: from the NE (50 degrees) at 3 MPH (3 knots; 1.5 m/s)
Visibility: 4 miles ( 6 km)
Ceiling: 1000 feet AGL
Clouds: broken clouds at 1000 feet AGL
overcast cloud deck at 1600 feet AGL
Weather: RA BR  (moderate rain, mist)

METAR text: KMDT 211703Z VRB03KT 3SM R13/4000VP6000FT -RA BR BKN008 OVC013 06/05 A2992 RMK AO2 P0001 T00610050
Conditions at: KMDT (MIDDLETOWN , PA, US) observed 1703 UTC 21 March 2019
Temperature: 6.1°C (43°F)
Dewpoint: 5.0°C (41°F) [RH = 93%]
Pressure (altimeter): 29.92 inches Hg (1013.3 mb)
Winds: variable direction winds at 3 MPH (3 knots; 1.5 m/s)
Visibility: 3 miles ( 5 km)
Ceiling: 800 feet AGL
Clouds: broken clouds at 800 feet AGL
overcast cloud deck at 1300 feet AGL
Weather: -RA BR  (light rain, mist)

METAR text: KMDT 211656Z 07005KT 3SM -RA BR SCT008 OVC013 06/04 A2992 RMK AO2 SLP136 P0015 T00610044
Conditions at: KMDT (MIDDLETOWN , PA, US) observed 1656 UTC 21 March 2019
Temperature: 6.1°C (43°F)
Dewpoint: 4.4°C (40°F) [RH = 89%]
Pressure (altimeter): 29.92 inches Hg (1013.3 mb)
[Sea-level pressure: 1013.6 mb]
Winds: from the ENE (70 degrees) at 6 MPH (5 knots; 2.6 m/s)
Visibility: 3 miles ( 5 km)
Ceiling: 1300 feet AGL
Clouds: scattered clouds at 800 feet AGL
overcast cloud deck at 1300 feet AGL
Weather: -RA BR  (light rain, mist)

METAR text: KMDT 211652Z 07006KT 3SM RA BR SCT008 BKN014 OVC021 06/04 A2993 RMK AO2 P0014
Conditions at: KMDT (MIDDLETOWN , PA, US) observed 1652 UTC 21 March 2019
Temperature: 6.0°C (43°F)
Dewpoint: 4.0°C (39°F) [RH = 87%]
Pressure (altimeter): 29.93 inches Hg (1013.6 mb)
Winds: from the ENE (70 degrees) at 7 MPH (6 knots; 3.1 m/s)
Visibility: 3 miles ( 5 km)
Ceiling: 1400 feet AGL
Clouds: scattered clouds at 800 feet AGL
broken clouds at 1400 feet AGL
overcast cloud deck at 2100 feet AGL
Weather: RA BR  (moderate rain, mist)

METAR text: KMDT 211607Z 00000KT 3SM RA BR SCT007 BKN018 OVC047 06/05 A2995 RMK AO2 P0003 T00610050
Conditions at: KMDT (MIDDLETOWN , PA, US) observed 1607 UTC 21 March 2019
Temperature: 6.1°C (43°F)
Dewpoint: 5.0°C (41°F) [RH = 93%]
Pressure (altimeter): 29.95 inches Hg (1014.3 mb)
Winds: calm
Visibility: 3 miles ( 5 km)
Ceiling: 1800 feet AGL
Clouds: scattered clouds at 700 feet AGL
broken clouds at 1800 feet AGL
overcast cloud deck at 4700 feet AGL
Weather: RA BR  (moderate rain, mist)

METAR text: KMDT 211603Z 05003KT 2 1/2SM R13/1800VP6000FT RA BR SCT007 BKN031 OVC041 06/04 A2995 RMK AO2 P0002 T00610044
Conditions at: KMDT (MIDDLETOWN , PA, US) observed 1603 UTC 21 March 2019
Temperature: 6.1°C (43°F)
Dewpoint: 4.4°C (40°F) [RH = 89%]
Pressure (altimeter): 29.95 inches Hg (1014.3 mb)
Winds: from the NE (50 degrees) at 3 MPH (3 knots; 1.5 m/s)
Visibility: 2.50 miles (4.02 km)
Ceiling: 3100 feet AGL
Clouds: scattered clouds at 700 feet AGL
broken clouds at 3100 feet AGL
overcast cloud deck at 4100 feet AGL
Weather: RA BR  (moderate rain, mist)

METAR text: KMDT 211556Z 06004KT 3SM R13/1800VP6000FT RA BR BKN007 OVC031 06/04 A2996 RMK AO2 SLP146 P0016 T00610044
Conditions at: KMDT (MIDDLETOWN , PA, US) observed 1556 UTC 21 March 2019
Temperature: 6.1°C (43°F)
Dewpoint: 4.4°C (40°F) [RH = 89%]
Pressure (altimeter): 29.96 inches Hg (1014.6 mb)
[Sea-level pressure: 1014.6 mb]
Winds: from the ENE (60 degrees) at 5 MPH (4 knots; 2.1 m/s)
Visibility: 3 miles ( 5 km)
Ceiling: 700 feet AGL
Clouds: broken clouds at 700 feet AGL
overcast cloud deck at 3100 feet AGL
Weather: RA BR  (moderate rain, mist)

METAR text: KMDT 211540Z 03005KT 4SM RA BR BKN007 OVC013 06/04 A2996 RMK AO2 P0011 T00560044
Conditions at: KMDT (MIDDLETOWN , PA, US) observed 1540 UTC 21 March 2019
Temperature: 5.6°C (42°F)
Dewpoint: 4.4°C (40°F) [RH = 92%]
Pressure (altimeter): 29.96 inches Hg (1014.6 mb)
Winds: from the NNE (30 degrees) at 6 MPH (5 knots; 2.6 m/s)
Visibility: 4 miles ( 6 km)
Ceiling: 700 feet AGL
Clouds: broken clouds at 700 feet AGL
overcast cloud deck at 1300 feet AGL
Weather: RA BR  (moderate rain, mist)

METAR text: KMDT 211523Z 05003KT 2 1/2SM R13/2200VP6000FT RA BR OVC009 06/04 A2998 RMK AO2 P0008 T00560044
Conditions at: KMDT (MIDDLETOWN , PA, US) observed 1523 UTC 21 March 2019
Temperature: 5.6°C (42°F)
Dewpoint: 4.4°C (40°F) [RH = 92%]
Pressure (altimeter): 29.98 inches Hg (1015.3 mb)
Winds: from the NE (50 degrees) at 3 MPH (3 knots; 1.5 m/s)
Visibility: 2.50 miles (4.02 km)
Ceiling: 900 feet AGL
Clouds: overcast cloud deck at 900 feet AGL
Weather: RA BR  (moderate rain, mist)

METAR text: KMDT 211456Z 07005KT 3SM -RA BR OVC009 06/04 A2999 RMK AO2 SLP159 P0014 60029 T00560039 56012
Conditions at: KMDT (MIDDLETOWN , PA, US) observed 1456 UTC 21 March 2019
Temperature: 5.6°C (42°F)
Dewpoint: 3.9°C (39°F) [RH = 89%]
Pressure (altimeter): 29.99 inches Hg (1015.7 mb)
[Sea-level pressure: 1015.9 mb]
Winds: from the ENE (70 degrees) at 6 MPH (5 knots; 2.6 m/s)
Visibility: 3 miles ( 5 km)
Ceiling: 900 feet AGL
Clouds: overcast cloud deck at 900 feet AGL
Weather: -RA BR  (light rain, mist)

METAR text: KMDT 211439Z VRB04KT 3SM -RA BR BKN009 OVC016 06/04 A3001 RMK AO2 P0011 T00560039
Conditions at: KMDT (MIDDLETOWN , PA, US) observed 1439 UTC 21 March 2019
Temperature: 5.6°C (42°F)
Dewpoint: 3.9°C (39°F) [RH = 89%]
Pressure (altimeter): 30.01 inches Hg (1016.3 mb)
Winds: variable direction winds at 5 MPH (4 knots; 2.1 m/s)
Visibility: 3 miles ( 5 km)
Ceiling: 900 feet AGL
Clouds: broken clouds at 900 feet AGL
overcast cloud deck at 1600 feet AGL
Weather: -RA BR  (light rain, mist)

METAR text: KMDT 211429Z VRB05KT 3SM -RA BR FEW007 BKN014 OVC020 06/04 A3001 RMK AO2 P0009 T00560039
Conditions at: KMDT (MIDDLETOWN , PA, US) observed 1429 UTC 21 March 2019
Temperature: 5.6°C (42°F)
Dewpoint: 3.9°C (39°F) [RH = 89%]
Pressure (altimeter): 30.01 inches Hg (1016.3 mb)
Winds: variable direction winds at 6 MPH (5 knots; 2.6 m/s)
Visibility: 3 miles ( 5 km)
Ceiling: 1400 feet AGL
Clouds: few clouds at 700 feet AGL
broken clouds at 1400 feet AGL
overcast cloud deck at 2000 feet AGL
Weather: -RA BR  (light rain, mist)

METAR text: KMDT 211413Z 06007KT 2 1/2SM R13/6000VP6000FT RA BR SCT009 OVC016 05/03 A3000 RMK AO2 P0003 T00500033
Conditions at: KMDT (MIDDLETOWN , PA, US) observed 1413 UTC 21 March 2019
Temperature: 5.0°C (41°F)
Dewpoint: 3.3°C (38°F) [RH = 89%]
Pressure (altimeter): 30.00 inches Hg (1016.0 mb)
Winds: from the ENE (60 degrees) at 8 MPH (7 knots; 3.6 m/s)
Visibility: 2.50 miles (4.02 km)
Ceiling: 1600 feet AGL
Clouds: scattered clouds at 900 feet AGL
overcast cloud deck at 1600 feet AGL
Weather: RA BR  (moderate rain, mist)

METAR text: KMDT 211409Z 07007KT 3SM RA BR SCT009 OVC014 05/03 A3000 RMK AO2 P0002 T00500033
Conditions at: KMDT (MIDDLETOWN , PA, US) observed 1409 UTC 21 March 2019
Temperature: 5.0°C (41°F)
Dewpoint: 3.3°C (38°F) [RH = 89%]
Pressure (altimeter): 30.00 inches Hg (1016.0 mb)
Winds: from the ENE (70 degrees) at 8 MPH (7 knots; 3.6 m/s)
Visibility: 3 miles ( 5 km)
Ceiling: 1400 feet AGL
Clouds: scattered clouds at 900 feet AGL
overcast cloud deck at 1400 feet AGL
Weather: RA BR  (moderate rain, mist)

METAR text: KMDT 211356Z 06006KT 4SM -RA BR BKN009 OVC014 05/03 A3000 RMK AO2 CIG 006V010 SLP162 P0011 T00500033
Conditions at: KMDT (MIDDLETOWN , PA, US) observed 1356 UTC 21 March 2019
Temperature: 5.0°C (41°F)
Dewpoint: 3.3°C (38°F) [RH = 89%]
Pressure (altimeter): 30.00 inches Hg (1016.0 mb)
[Sea-level pressure: 1016.2 mb]
Winds: from the ENE (60 degrees) at 7 MPH (6 knots; 3.1 m/s)
Visibility: 4 miles ( 6 km)
Ceiling: 900 feet AGL
Clouds: broken clouds at 900 feet AGL
overcast cloud deck at 1400 feet AGL
Weather: -RA BR  (light rain, mist)

METAR text: KMDT 211353Z 06007KT 3SM RA BR BKN009 OVC014 05/03 A3000 RMK AO2 CIG 006V012 P0010
Conditions at: KMDT (MIDDLETOWN , PA, US) observed 1353 UTC 21 March 2019
Temperature: 5.0°C (41°F)
Dewpoint: 3.0°C (37°F) [RH = 87%]
Pressure (altimeter): 30.00 inches Hg (1016.0 mb)
Winds: from the ENE (60 degrees) at 8 MPH (7 knots; 3.6 m/s)
Visibility: 3 miles ( 5 km)
Ceiling: 900 feet AGL
Clouds: broken clouds at 900 feet AGL
overcast cloud deck at 1400 feet AGL
Weather: RA BR  (moderate rain, mist)

METAR text: KMDT 211337Z 03007KT 2SM RA BR OVC009 05/03 A3001 RMK AO2 CIG 006V011 P0007 T00500033
Conditions at: KMDT (MIDDLETOWN , PA, US) observed 1337 UTC 21 March 2019
Temperature: 5.0°C (41°F)
Dewpoint: 3.3°C (38°F) [RH = 89%]
Pressure (altimeter): 30.01 inches Hg (1016.3 mb)
Winds: from the NNE (30 degrees) at 8 MPH (7 knots; 3.6 m/s)
Visibility: 2.00 miles (3.22 km)
Ceiling: 900 feet AGL
Clouds: overcast cloud deck at 900 feet AGL
Weather: RA BR  (moderate rain, mist)

METAR text: KMDT 211313Z 04005KT 4SM -RA BR OVC009 05/03 A3002 RMK AO2 CIG 006V012 P0001 T00500033
Conditions at: KMDT (MIDDLETOWN , PA, US) observed 1313 UTC 21 March 2019
Temperature: 5.0°C (41°F)
Dewpoint: 3.3°C (38°F) [RH = 89%]
Pressure (altimeter): 30.02 inches Hg (1016.7 mb)
Winds: from the NE (40 degrees) at 6 MPH (5 knots; 2.6 m/s)
Visibility: 4 miles ( 6 km)
Ceiling: 900 feet AGL
Clouds: overcast cloud deck at 900 feet AGL
Weather: -RA BR  (light rain, mist)

METAR text: KMDT 211305Z 03004KT 2 1/2SM -RA BR OVC007 05/03 A3003 RMK AO2 CIG 006V012 P0001 T00500033
Conditions at: KMDT (MIDDLETOWN , PA, US) observed 1305 UTC 21 March 2019
Temperature: 5.0°C (41°F)
Dewpoint: 3.3°C (38°F) [RH = 89%]
Pressure (altimeter): 30.03 inches Hg (1017.0 mb)
Winds: from the NNE (30 degrees) at 5 MPH (4 knots; 2.1 m/s)
Visibility: 2.50 miles (4.02 km)
Ceiling: 700 feet AGL
Clouds: overcast cloud deck at 700 feet AGL
Weather: -RA BR  (light rain, mist)

METAR text: KMDT 211256Z VRB04KT 1 3/4SM -RA BR OVC008 05/03 A3003 RMK AO2 CIG 006V012 SLP171 P0004 T00500033
Conditions at: KMDT (MIDDLETOWN , PA, US) observed 1256 UTC 21 March 2019
Temperature: 5.0°C (41°F)
Dewpoint: 3.3°C (38°F) [RH = 89%]
Pressure (altimeter): 30.03 inches Hg (1017.0 mb)
[Sea-level pressure: 1017.1 mb]
Winds: variable direction winds at 5 MPH (4 knots; 2.1 m/s)
Visibility: 1.75 miles (2.82 km)
Ceiling: 800 feet AGL
Clouds: overcast cloud deck at 800 feet AGL
Weather: -RA BR  (light rain, mist)

METAR text: KMDT 211254Z 02005KT 1 3/4SM -RA BR OVC008 05/03 A3003 RMK AO2 CIG 006V012 P0004
Conditions at: KMDT (MIDDLETOWN , PA, US) observed 1254 UTC 21 March 2019
Temperature: 5.0°C (41°F)
Dewpoint: 3.0°C (37°F) [RH = 87%]
Pressure (altimeter): 30.03 inches Hg (1017.0 mb)
Winds: from the NNE (20 degrees) at 6 MPH (5 knots; 2.6 m/s)
Visibility: 1.75 miles (2.82 km)
Ceiling: 800 feet AGL
Clouds: overcast cloud deck at 800 feet AGL
Weather: -RA BR  (light rain, mist)

METAR text: KMDT 211237Z 05006KT 1 3/4SM -RA BR OVC014 05/03 A3003 RMK AO2 P0002 T00500033
Conditions at: KMDT (MIDDLETOWN , PA, US) observed 1237 UTC 21 March 2019
Temperature: 5.0°C (41°F)
Dewpoint: 3.3°C (38°F) [RH = 89%]
Pressure (altimeter): 30.03 inches Hg (1017.0 mb)
Winds: from the NE (50 degrees) at 7 MPH (6 knots; 3.1 m/s)
Visibility: 1.75 miles (2.82 km)
Ceiling: 1400 feet AGL
Clouds: overcast cloud deck at 1400 feet AGL
Weather: -RA BR  (light rain, mist)

METAR text: KMDT 211233Z 06006KT 2 1/2SM -RA BR SCT010 OVC014 05/03 A3003 RMK AO2 P0001 T00500033
Conditions at: KMDT (MIDDLETOWN , PA, US) observed 1233 UTC 21 March 2019
Temperature: 5.0°C (41°F)
Dewpoint: 3.3°C (38°F) [RH = 89%]
Pressure (altimeter): 30.03 inches Hg (1017.0 mb)
Winds: from the ENE (60 degrees) at 7 MPH (6 knots; 3.1 m/s)
Visibility: 2.50 miles (4.02 km)
Ceiling: 1400 feet AGL
Clouds: scattered clouds at 1000 feet AGL
overcast cloud deck at 1400 feet AGL
Weather: -RA BR  (light rain, mist)

Forecast for: KMDT (MIDDLETOWN , PA, US)
Text: KMDT 222326Z 2300/2324 30025G35KT P6SM VCSH BKN060
Forecast period: 0000 to 0400 UTC 23 March 2019
Forecast type: FROM: standard forecast or significant change
Winds: from the WNW (300 degrees) at 29 MPH (25 knots; 12.9 m/s)
gusting to 40 MPH (35 knots; 18.0 m/s)
Visibility: 6 or more miles 10+ km)
Ceiling: 6000 feet AGL
Clouds: broken clouds at 6000 feet AGL
Weather: VCSH  (showers in vicinity)
Text: FM230400 30022G32KT P6SM SCT100
Forecast period: 0400 to 1300 UTC 23 March 2019
Forecast type: FROM: standard forecast or significant change
Winds: from the WNW (300 degrees) at 25 MPH (22 knots; 11.3 m/s)
gusting to 37 MPH (32 knots; 16.5 m/s)
Visibility: 6 or more miles 10+ km)
Ceiling: at least 12,000 feet AGL
Clouds: scattered clouds at 10000 feet AGL
Weather: no significant weather forecast for this period
Text: FM231300 31024G31KT P6SM SKC
Forecast period: 1300 to 2200 UTC 23 March 2019
Forecast type: FROM: standard forecast or significant change
Winds: from the NW (310 degrees) at 28 MPH (24 knots; 12.3 m/s)
gusting to 36 MPH (31 knots; 15.9 m/s)
Visibility: 6 or more miles 10+ km)
Clouds: clear skies
Weather: no significant weather forecast for this period
Text: FM232200 30015G25KT P6SM SKC
Forecast period: 2200 UTC 23 March 2019 to 0000 UTC 24 March 2019
Forecast type: FROM: standard forecast or significant change
Winds: from the WNW (300 degrees) at 17 MPH (15 knots; 7.7 m/s)
gusting to 29 MPH (25 knots; 12.9 m/s)
Visibility: 6 or more miles 10+ km)
Clouds: clear skies
Weather: no significant weather forecast for this period